sensor_id;sensor_type;location;lat;lon;timestamp;temperature;humidity
19862;DHT22;10093;48.148;8.542;2022-11-09T00:01:43;8.50;99.90
19862;DHT22;10093;48.148;8.542;2022-11-09T00:04:09;8.60;99.90
19862;DHT22;10093;48.148;8.542;2022-11-09T00:06:35;8.60;99.90
19862;DHT22;10093;48.148;8.542;2022-11-09T00:09:03;8.70;99.90
19862;DHT22;10093;48.148;8.542;2022-11-09T00:11:29;8.80;99.90
19862;DHT22;10093;48.148;8.542;2022-11-09T00:13:54;8.80;99.90
19862;DHT22;10093;48.148;8.542;2022-11-09T00:16:21;8.70;99.90
19862;DHT22;10093;48.148;8.542;2022-11-09T00:18:46;8.70;99.90
19862;DHT22;10093;48.148;8.542;2022-11-09T00:21:21;8.70;99.90
19862;DHT22;10093;48.148;8.542;2022-11-09T00:23:47;8.60;99.90
19862;DHT22;10093;48.148;8.542;2022-11-09T00:26:15;8.50;99.90
19862;DHT22;10093;48.148;8.542;2022-11-09T00:28:41;8.50;99.90
19862;DHT22;10093;48.148;8.542;2022-11-09T00:31:19;8.40;99.90
19862;DHT22;10093;48.148;8.542;2022-11-09T00:33:53;8.40;99.90
19862;DHT22;10093;48.148;8.542;2022-11-09T00:36:20;8.50;99.90
19862;DHT22;10093;48.148;8.542;2022-11-09T00:38:50;8.50;99.90
19862;DHT22;10093;48.148;8.542;2022-11-09T00:41:17;8.50;99.90
19862;DHT22;10093;48.148;8.542;2022-11-09T00:43:42;8.50;99.90
19862;DHT22;10093;48.148;8.542;2022-11-09T00:46:08;8.50;99.90
19862;DHT22;10093;48.148;8.542;2022-11-09T00:48:34;8.50;99.90
19862;DHT22;10093;48.148;8.542;2022-11-09T00:51:00;8.50;99.90
19862;DHT22;10093;48.148;8.542;2022-11-09T00:53:26;8.40;99.90
19862;DHT22;10093;48.148;8.542;2022-11-09T00:55:59;8.60;99.90
19862;DHT22;10093;48.148;8.542;2022-11-09T00:58:26;8.70;99.90
19862;DHT22;10093;48.148;8.542;2022-11-09T01:00:54;8.80;99.90
19862;DHT22;10093;48.148;8.542;2022-11-09T01:03:20;8.70;99.90
19862;DHT22;10093;48.148;8.542;2022-11-09T01:05:46;8.80;99.90
19862;DHT22;10093;48.148;8.542;2022-11-09T01:08:11;8.80;99.90
19862;DHT22;10093;48.148;8.542;2022-11-09T01:10:45;8.90;99.90
19862;DHT22;10093;48.148;8.542;2022-11-09T01:13:12;9.00;99.90
19862;DHT22;10093;48.148;8.542;2022-11-09T01:15:43;9.00;99.90
19862;DHT22;10093;48.148;8.542;2022-11-09T01:18:10;8.90;99.90
19862;DHT22;10093;48.148;8.542;2022-11-09T01:20:44;8.90;99.90
19862;DHT22;10093;48.148;8.542;2022-11-09T01:23:11;8.80;99.90
19862;DHT22;10093;48.148;8.542;2022-11-09T01:25:37;8.90;99.90
19862;DHT22;10093;48.148;8.542;2022-11-09T01:28:05;8.80;99.90
19862;DHT22;10093;48.148;8.542;2022-11-09T01:30:34;8.70;99.90
19862;DHT22;10093;48.148;8.542;2022-11-09T01:33:02;8.80;99.90
19862;DHT22;10093;48.148;8.542;2022-11-09T01:35:28;8.90;99.90
19862;DHT22;10093;48.148;8.542;2022-11-09T01:37:54;9.10;99.90
19862;DHT22;10093;48.148;8.542;2022-11-09T01:40:20;9.40;99.90
19862;DHT22;10093;48.148;8.542;2022-11-09T01:42:45;9.40;99.90
19862;DHT22;10093;48.148;8.542;2022-11-09T01:47:49;9.60;99.90
19862;DHT22;10093;48.148;8.542;2022-11-09T01:50:22;9.70;99.90
19862;DHT22;10093;48.148;8.542;2022-11-09T01:52:50;9.60;99.90
19862;DHT22;10093;48.148;8.542;2022-11-09T01:55:19;9.90;99.90
19862;DHT22;10093;48.148;8.542;2022-11-09T02:00:18;9.90;99.90
19862;DHT22;10093;48.148;8.542;2022-11-09T02:02:54;10.00;99.90
19862;DHT22;10093;48.148;8.542;2022-11-09T02:05:27;10.20;99.90
19862;DHT22;10093;48.148;8.542;2022-11-09T02:07:54;10.30;99.90
19862;DHT22;10093;48.148;8.542;2022-11-09T02:13:04;10.20;99.90
19862;DHT22;10093;48.148;8.542;2022-11-09T02:15:30;10.10;99.90
19862;DHT22;10093;48.148;8.542;2022-11-09T02:17:56;10.10;99.90
19862;DHT22;10093;48.148;8.542;2022-11-09T02:20:23;10.10;99.90
19862;DHT22;10093;48.148;8.542;2022-11-09T02:22:50;10.10;99.90
19862;DHT22;10093;48.148;8.542;2022-11-09T02:25:16;10.10;99.90
19862;DHT22;10093;48.148;8.542;2022-11-09T02:27:43;10.20;99.90
19862;DHT22;10093;48.148;8.542;2022-11-09T02:30:09;10.20;99.90
19862;DHT22;10093;48.148;8.542;2022-11-09T02:32:36;10.20;99.90
19862;DHT22;10093;48.148;8.542;2022-11-09T02:35:02;10.30;99.90
19862;DHT22;10093;48.148;8.542;2022-11-09T02:37:33;10.10;99.90
19862;DHT22;10093;48.148;8.542;2022-11-09T02:40:00;10.30;99.90
19862;DHT22;10093;48.148;8.542;2022-11-09T02:42:27;10.30;99.90
19862;DHT22;10093;48.148;8.542;2022-11-09T02:44:58;10.30;99.90
19862;DHT22;10093;48.148;8.542;2022-11-09T02:47:24;10.40;99.90
19862;DHT22;10093;48.148;8.542;2022-11-09T02:49:50;10.40;99.90
19862;DHT22;10093;48.148;8.542;2022-11-09T02:52:17;10.10;99.90
19862;DHT22;10093;48.148;8.542;2022-11-09T02:54:43;10.10;99.90
19862;DHT22;10093;48.148;8.542;2022-11-09T02:57:08;10.20;99.90
19862;DHT22;10093;48.148;8.542;2022-11-09T02:59:34;10.10;99.90
19862;DHT22;10093;48.148;8.542;2022-11-09T03:01:59;10.10;99.90
19862;DHT22;10093;48.148;8.542;2022-11-09T03:04:26;10.00;99.90
19862;DHT22;10093;48.148;8.542;2022-11-09T03:06:51;10.20;99.90
19862;DHT22;10093;48.148;8.542;2022-11-09T03:09:17;10.00;99.90
19862;DHT22;10093;48.148;8.542;2022-11-09T03:11:43;10.10;99.90
19862;DHT22;10093;48.148;8.542;2022-11-09T03:14:10;9.90;99.90
19862;DHT22;10093;48.148;8.542;2022-11-09T03:16:36;9.90;99.90
19862;DHT22;10093;48.148;8.542;2022-11-09T03:19:03;9.80;99.90
19862;DHT22;10093;48.148;8.542;2022-11-09T03:21:28;9.60;99.90
19862;DHT22;10093;48.148;8.542;2022-11-09T03:23:54;9.50;99.90
19862;DHT22;10093;48.148;8.542;2022-11-09T03:26:20;9.30;99.90
19862;DHT22;10093;48.148;8.542;2022-11-09T03:28:46;9.30;99.90
19862;DHT22;10093;48.148;8.542;2022-11-09T03:31:12;9.20;99.90
19862;DHT22;10093;48.148;8.542;2022-11-09T03:33:37;9.20;99.90
19862;DHT22;10093;48.148;8.542;2022-11-09T03:36:03;9.10;99.90
19862;DHT22;10093;48.148;8.542;2022-11-09T03:38:29;9.10;99.90
19862;DHT22;10093;48.148;8.542;2022-11-09T03:40:55;9.20;99.90
19862;DHT22;10093;48.148;8.542;2022-11-09T03:43:20;9.20;99.90
19862;DHT22;10093;48.148;8.542;2022-11-09T03:45:46;9.50;99.90
19862;DHT22;10093;48.148;8.542;2022-11-09T03:48:21;9.30;99.90
19862;DHT22;10093;48.148;8.542;2022-11-09T03:50:47;9.30;99.90
19862;DHT22;10093;48.148;8.542;2022-11-09T03:53:12;9.30;99.90
19862;DHT22;10093;48.148;8.542;2022-11-09T03:55:38;9.50;99.90
19862;DHT22;10093;48.148;8.542;2022-11-09T03:58:05;9.50;99.90
19862;DHT22;10093;48.148;8.542;2022-11-09T04:00:31;9.20;99.90
19862;DHT22;10093;48.148;8.542;2022-11-09T04:02:57;9.40;99.90
19862;DHT22;10093;48.148;8.542;2022-11-09T04:05:23;9.20;99.90
19862;DHT22;10093;48.148;8.542;2022-11-09T04:07:54;9.00;99.90
19862;DHT22;10093;48.148;8.542;2022-11-09T04:10:20;8.90;99.90
19862;DHT22;10093;48.148;8.542;2022-11-09T04:12:47;8.90;99.90
19862;DHT22;10093;48.148;8.542;2022-11-09T04:15:13;8.80;99.90
19862;DHT22;10093;48.148;8.542;2022-11-09T04:17:38;8.80;99.90
19862;DHT22;10093;48.148;8.542;2022-11-09T04:20:06;8.80;99.90
19862;DHT22;10093;48.148;8.542;2022-11-09T04:22:32;8.70;99.90
19862;DHT22;10093;48.148;8.542;2022-11-09T04:24:57;8.60;99.90
19862;DHT22;10093;48.148;8.542;2022-11-09T04:27:23;8.60;99.90
19862;DHT22;10093;48.148;8.542;2022-11-09T04:29:48;8.60;99.90
19862;DHT22;10093;48.148;8.542;2022-11-09T04:32:14;8.80;99.90
19862;DHT22;10093;48.148;8.542;2022-11-09T04:34:39;8.80;99.90
19862;DHT22;10093;48.148;8.542;2022-11-09T04:37:09;8.80;99.90
19862;DHT22;10093;48.148;8.542;2022-11-09T04:39:34;8.70;99.90
19862;DHT22;10093;48.148;8.542;2022-11-09T04:42:00;8.60;99.90
19862;DHT22;10093;48.148;8.542;2022-11-09T04:44:26;8.60;99.90
19862;DHT22;10093;48.148;8.542;2022-11-09T04:46:53;8.50;99.90
19862;DHT22;10093;48.148;8.542;2022-11-09T04:49:19;8.50;99.90
19862;DHT22;10093;48.148;8.542;2022-11-09T04:51:44;8.60;99.90
19862;DHT22;10093;48.148;8.542;2022-11-09T04:54:10;8.60;99.90
19862;DHT22;10093;48.148;8.542;2022-11-09T04:56:36;8.70;99.90
19862;DHT22;10093;48.148;8.542;2022-11-09T04:59:01;8.70;99.90
19862;DHT22;10093;48.148;8.542;2022-11-09T05:01:27;8.70;99.90
19862;DHT22;10093;48.148;8.542;2022-11-09T05:03:52;8.60;99.90
19862;DHT22;10093;48.148;8.542;2022-11-09T05:06:18;8.60;99.90
19862;DHT22;10093;48.148;8.542;2022-11-09T05:08:56;8.50;99.90
19862;DHT22;10093;48.148;8.542;2022-11-09T05:11:22;8.50;99.90
19862;DHT22;10093;48.148;8.542;2022-11-09T05:13:48;8.50;99.90
19862;DHT22;10093;48.148;8.542;2022-11-09T05:16:15;8.40;99.90
19862;DHT22;10093;48.148;8.542;2022-11-09T05:18:42;8.40;99.90
19862;DHT22;10093;48.148;8.542;2022-11-09T05:21:07;8.40;99.90
19862;DHT22;10093;48.148;8.542;2022-11-09T05:23:33;8.30;99.90
19862;DHT22;10093;48.148;8.542;2022-11-09T05:26:17;8.40;99.90
19862;DHT22;10093;48.148;8.542;2022-11-09T05:28:43;8.30;99.90
19862;DHT22;10093;48.148;8.542;2022-11-09T05:31:09;8.30;99.90
19862;DHT22;10093;48.148;8.542;2022-11-09T05:33:35;8.30;99.90
19862;DHT22;10093;48.148;8.542;2022-11-09T05:36:00;8.20;99.90
19862;DHT22;10093;48.148;8.542;2022-11-09T05:38:26;8.20;99.90
19862;DHT22;10093;48.148;8.542;2022-11-09T05:40:52;8.20;99.90
19862;DHT22;10093;48.148;8.542;2022-11-09T05:43:18;8.30;99.90
19862;DHT22;10093;48.148;8.542;2022-11-09T05:45:45;8.40;99.90
19862;DHT22;10093;48.148;8.542;2022-11-09T05:48:12;8.40;99.90
19862;DHT22;10093;48.148;8.542;2022-11-09T05:50:38;8.50;99.90
19862;DHT22;10093;48.148;8.542;2022-11-09T05:53:05;8.50;99.90
19862;DHT22;10093;48.148;8.542;2022-11-09T05:55:31;8.70;99.90
19862;DHT22;10093;48.148;8.542;2022-11-09T05:57:57;8.80;99.90
19862;DHT22;10093;48.148;8.542;2022-11-09T06:00:24;8.70;99.90
19862;DHT22;10093;48.148;8.542;2022-11-09T06:02:50;8.80;99.90
19862;DHT22;10093;48.148;8.542;2022-11-09T06:05:16;8.90;99.90
19862;DHT22;10093;48.148;8.542;2022-11-09T06:07:42;9.10;99.90
19862;DHT22;10093;48.148;8.542;2022-11-09T06:10:08;9.20;99.90
19862;DHT22;10093;48.148;8.542;2022-11-09T06:12:34;9.20;99.90
19862;DHT22;10093;48.148;8.542;2022-11-09T06:15:00;9.20;99.90
19862;DHT22;10093;48.148;8.542;2022-11-09T06:17:26;9.30;99.90
19862;DHT22;10093;48.148;8.542;2022-11-09T06:19:51;9.40;99.90
19862;DHT22;10093;48.148;8.542;2022-11-09T06:22:17;9.60;99.90
19862;DHT22;10093;48.148;8.542;2022-11-09T06:24:43;9.60;99.90
19862;DHT22;10093;48.148;8.542;2022-11-09T06:27:08;9.60;99.90
19862;DHT22;10093;48.148;8.542;2022-11-09T06:29:34;9.60;99.90
19862;DHT22;10093;48.148;8.542;2022-11-09T06:32:00;9.60;99.90
19862;DHT22;10093;48.148;8.542;2022-11-09T06:34:25;9.60;99.90
19862;DHT22;10093;48.148;8.542;2022-11-09T06:36:51;9.60;99.90
19862;DHT22;10093;48.148;8.542;2022-11-09T06:39:17;9.70;99.90
19862;DHT22;10093;48.148;8.542;2022-11-09T06:41:42;9.70;99.90
19862;DHT22;10093;48.148;8.542;2022-11-09T06:44:08;9.70;99.90
19862;DHT22;10093;48.148;8.542;2022-11-09T06:46:33;9.70;99.90
19862;DHT22;10093;48.148;8.542;2022-11-09T06:48:59;9.70;99.90
19862;DHT22;10093;48.148;8.542;2022-11-09T06:51:25;9.70;99.90
19862;DHT22;10093;48.148;8.542;2022-11-09T06:53:51;9.70;99.90
19862;DHT22;10093;48.148;8.542;2022-11-09T06:56:16;9.70;99.90
19862;DHT22;10093;48.148;8.542;2022-11-09T06:58:42;9.70;99.90
19862;DHT22;10093;48.148;8.542;2022-11-09T07:01:09;9.80;99.90
19862;DHT22;10093;48.148;8.542;2022-11-09T07:03:35;9.80;99.90
19862;DHT22;10093;48.148;8.542;2022-11-09T07:06:09;9.80;99.90
19862;DHT22;10093;48.148;8.542;2022-11-09T07:08:35;9.90;99.90
19862;DHT22;10093;48.148;8.542;2022-11-09T07:11:08;9.80;99.90
19862;DHT22;10093;48.148;8.542;2022-11-09T07:13:34;9.90;99.90
19862;DHT22;10093;48.148;8.542;2022-11-09T07:15:59;9.90;99.90
19862;DHT22;10093;48.148;8.542;2022-11-09T07:18:25;9.90;99.90
19862;DHT22;10093;48.148;8.542;2022-11-09T07:20:51;9.90;99.90
19862;DHT22;10093;48.148;8.542;2022-11-09T07:23:17;10.00;99.90
19862;DHT22;10093;48.148;8.542;2022-11-09T07:25:43;10.00;99.90
19862;DHT22;10093;48.148;8.542;2022-11-09T07:28:09;10.00;99.90
19862;DHT22;10093;48.148;8.542;2022-11-09T07:30:36;10.00;99.90
19862;DHT22;10093;48.148;8.542;2022-11-09T07:33:08;10.00;99.90
19862;DHT22;10093;48.148;8.542;2022-11-09T07:35:36;10.00;99.90
19862;DHT22;10093;48.148;8.542;2022-11-09T07:38:02;10.00;99.90
19862;DHT22;10093;48.148;8.542;2022-11-09T07:40:28;10.00;99.90
19862;DHT22;10093;48.148;8.542;2022-11-09T07:42:57;10.00;99.90
19862;DHT22;10093;48.148;8.542;2022-11-09T07:45:23;10.00;99.90
19862;DHT22;10093;48.148;8.542;2022-11-09T07:47:57;10.00;99.90
19862;DHT22;10093;48.148;8.542;2022-11-09T07:50:23;9.90;99.90
19862;DHT22;10093;48.148;8.542;2022-11-09T07:52:49;9.90;99.90
19862;DHT22;10093;48.148;8.542;2022-11-09T07:55:15;9.90;99.90
19862;DHT22;10093;48.148;8.542;2022-11-09T07:57:40;9.90;99.90
19862;DHT22;10093;48.148;8.542;2022-11-09T08:00:09;9.80;99.90
19862;DHT22;10093;48.148;8.542;2022-11-09T08:02:35;9.80;99.90
19862;DHT22;10093;48.148;8.542;2022-11-09T08:05:01;9.80;99.90
19862;DHT22;10093;48.148;8.542;2022-11-09T08:07:27;9.80;99.90
19862;DHT22;10093;48.148;8.542;2022-11-09T08:09:53;9.90;99.90
19862;DHT22;10093;48.148;8.542;2022-11-09T08:12:19;9.90;99.90
19862;DHT22;10093;48.148;8.542;2022-11-09T08:14:44;9.90;99.90
19862;DHT22;10093;48.148;8.542;2022-11-09T08:17:10;9.90;99.90
19862;DHT22;10093;48.148;8.542;2022-11-09T08:19:36;9.90;99.90
19862;DHT22;10093;48.148;8.542;2022-11-09T08:22:01;10.00;99.90
19862;DHT22;10093;48.148;8.542;2022-11-09T08:24:27;10.10;99.90
19862;DHT22;10093;48.148;8.542;2022-11-09T08:26:52;10.10;99.90
19862;DHT22;10093;48.148;8.542;2022-11-09T08:29:18;10.00;99.90
19862;DHT22;10093;48.148;8.542;2022-11-09T08:31:44;10.10;99.90
19862;DHT22;10093;48.148;8.542;2022-11-09T08:34:11;10.10;99.90
19862;DHT22;10093;48.148;8.542;2022-11-09T08:36:38;10.00;99.90
19862;DHT22;10093;48.148;8.542;2022-11-09T08:39:04;10.10;99.90
19862;DHT22;10093;48.148;8.542;2022-11-09T08:41:29;10.00;99.90
19862;DHT22;10093;48.148;8.542;2022-11-09T08:43:55;10.00;99.90
19862;DHT22;10093;48.148;8.542;2022-11-09T08:46:20;9.90;99.90
19862;DHT22;10093;48.148;8.542;2022-11-09T08:48:46;10.10;99.90
19862;DHT22;10093;48.148;8.542;2022-11-09T08:51:12;10.10;99.90
19862;DHT22;10093;48.148;8.542;2022-11-09T08:53:37;10.00;99.90
19862;DHT22;10093;48.148;8.542;2022-11-09T08:56:07;9.90;99.90
19862;DHT22;10093;48.148;8.542;2022-11-09T08:58:33;10.10;99.90
19862;DHT22;10093;48.148;8.542;2022-11-09T09:01:00;10.00;99.90
19862;DHT22;10093;48.148;8.542;2022-11-09T09:03:25;10.00;99.90
19862;DHT22;10093;48.148;8.542;2022-11-09T09:05:51;10.20;99.90
19862;DHT22;10093;48.148;8.542;2022-11-09T09:08:16;10.30;99.90
19862;DHT22;10093;48.148;8.542;2022-11-09T09:10:46;10.40;99.90
19862;DHT22;10093;48.148;8.542;2022-11-09T09:13:12;10.30;99.90
19862;DHT22;10093;48.148;8.542;2022-11-09T09:15:38;10.40;99.90
19862;DHT22;10093;48.148;8.542;2022-11-09T09:18:04;10.40;99.90
19862;DHT22;10093;48.148;8.542;2022-11-09T09:20:30;10.40;99.90
19862;DHT22;10093;48.148;8.542;2022-11-09T09:22:57;10.50;99.90
19862;DHT22;10093;48.148;8.542;2022-11-09T09:25:24;10.50;99.90
19862;DHT22;10093;48.148;8.542;2022-11-09T09:27:50;10.40;99.90
19862;DHT22;10093;48.148;8.542;2022-11-09T09:30:15;10.40;99.90
19862;DHT22;10093;48.148;8.542;2022-11-09T09:32:41;10.50;99.90
19862;DHT22;10093;48.148;8.542;2022-11-09T09:35:07;10.70;99.90
19862;DHT22;10093;48.148;8.542;2022-11-09T09:37:33;10.70;99.90
19862;DHT22;10093;48.148;8.542;2022-11-09T09:39:58;10.80;99.90
19862;DHT22;10093;48.148;8.542;2022-11-09T09:42:33;11.10;99.90
19862;DHT22;10093;48.148;8.542;2022-11-09T09:45:17;11.30;99.90
19862;DHT22;10093;48.148;8.542;2022-11-09T09:50:15;11.70;99.90
19862;DHT22;10093;48.148;8.542;2022-11-09T09:58:25;12.10;99.90
19862;DHT22;10093;48.148;8.542;2022-11-09T10:00:56;12.20;99.90
19862;DHT22;10093;48.148;8.542;2022-11-09T10:03:22;12.30;99.90
19862;DHT22;10093;48.148;8.542;2022-11-09T10:06:00;12.30;99.90
19862;DHT22;10093;48.148;8.542;2022-11-09T10:08:45;12.50;99.90
19862;DHT22;10093;48.148;8.542;2022-11-09T10:16:45;12.20;99.90
19862;DHT22;10093;48.148;8.542;2022-11-09T10:19:49;12.50;99.90
19862;DHT22;10093;48.148;8.542;2022-11-09T10:25:09;12.80;99.90
19862;DHT22;10093;48.148;8.542;2022-11-09T10:27:49;12.60;99.90
19862;DHT22;10093;48.148;8.542;2022-11-09T10:30:18;12.40;99.90
19862;DHT22;10093;48.148;8.542;2022-11-09T10:32:47;12.30;99.90
19862;DHT22;10093;48.148;8.542;2022-11-09T10:35:22;12.30;99.90
19862;DHT22;10093;48.148;8.542;2022-11-09T10:37:51;12.50;99.90
19862;DHT22;10093;48.148;8.542;2022-11-09T10:40:27;12.50;99.90
19862;DHT22;10093;48.148;8.542;2022-11-09T10:43:05;12.70;99.90
19862;DHT22;10093;48.148;8.542;2022-11-09T10:45:33;12.90;99.90
19862;DHT22;10093;48.148;8.542;2022-11-09T10:47:59;13.10;99.90
19862;DHT22;10093;48.148;8.542;2022-11-09T10:53:14;13.10;99.90
19862;DHT22;10093;48.148;8.542;2022-11-09T11:01:42;13.50;99.90
19862;DHT22;10093;48.148;8.542;2022-11-09T11:03:44;13.50;99.90
19862;DHT22;10093;48.148;8.542;2022-11-09T11:06:19;13.10;99.90
19862;DHT22;10093;48.148;8.542;2022-11-09T11:11:32;13.10;99.90
19862;DHT22;10093;48.148;8.542;2022-11-09T11:16:41;13.50;99.90
19862;DHT22;10093;48.148;8.542;2022-11-09T11:19:32;13.60;99.90
19862;DHT22;10093;48.148;8.542;2022-11-09T11:24:41;13.80;99.90
19862;DHT22;10093;48.148;8.542;2022-11-09T11:27:19;13.60;99.90
19862;DHT22;10093;48.148;8.542;2022-11-09T11:29:51;13.50;99.90
19862;DHT22;10093;48.148;8.542;2022-11-09T11:32:19;13.50;99.90
19862;DHT22;10093;48.148;8.542;2022-11-09T11:34:46;13.40;99.90
19862;DHT22;10093;48.148;8.542;2022-11-09T11:40:26;13.30;99.90
19862;DHT22;10093;48.148;8.542;2022-11-09T11:49:00;13.20;99.90
19862;DHT22;10093;48.148;8.542;2022-11-09T12:05:30;13.30;99.90
19862;DHT22;10093;48.148;8.542;2022-11-09T12:11:03;13.40;99.90
19862;DHT22;10093;48.148;8.542;2022-11-09T12:16:47;13.40;99.90
19862;DHT22;10093;48.148;8.542;2022-11-09T12:19:18;13.20;99.90
19862;DHT22;10093;48.148;8.542;2022-11-09T12:30:12;13.30;99.90
19862;DHT22;10093;48.148;8.542;2022-11-09T12:32:58;13.30;99.90
19862;DHT22;10093;48.148;8.542;2022-11-09T12:35:31;13.30;99.90
19862;DHT22;10093;48.148;8.542;2022-11-09T12:40:59;13.20;99.90
19862;DHT22;10093;48.148;8.542;2022-11-09T12:45:58;13.10;99.90
19862;DHT22;10093;48.148;8.542;2022-11-09T12:48:28;13.20;99.90
19862;DHT22;10093;48.148;8.542;2022-11-09T12:50:55;13.20;99.90
19862;DHT22;10093;48.148;8.542;2022-11-09T12:53:26;13.30;99.90
19862;DHT22;10093;48.148;8.542;2022-11-09T12:56:00;13.30;99.90
19862;DHT22;10093;48.148;8.542;2022-11-09T12:58:32;13.50;99.90
19862;DHT22;10093;48.148;8.542;2022-11-09T13:01:04;13.60;99.90
19862;DHT22;10093;48.148;8.542;2022-11-09T13:03:39;13.70;99.90
19862;DHT22;10093;48.148;8.542;2022-11-09T13:06:21;13.90;99.90
19862;DHT22;10093;48.148;8.542;2022-11-09T13:09:18;13.50;99.90
19862;DHT22;10093;48.148;8.542;2022-11-09T13:11:49;13.60;99.90
19862;DHT22;10093;48.148;8.542;2022-11-09T13:16:56;13.50;99.90
19862;DHT22;10093;48.148;8.542;2022-11-09T13:38:21;13.20;99.90
19862;DHT22;10093;48.148;8.542;2022-11-09T13:43:30;12.90;99.90
19862;DHT22;10093;48.148;8.542;2022-11-09T13:48:41;12.70;99.90
19862;DHT22;10093;48.148;8.542;2022-11-09T13:51:16;12.80;99.90
19862;DHT22;10093;48.148;8.542;2022-11-09T13:58:52;12.60;99.90
19862;DHT22;10093;48.148;8.542;2022-11-09T14:01:32;12.30;99.90
19862;DHT22;10093;48.148;8.542;2022-11-09T14:03:58;12.30;99.90
19862;DHT22;10093;48.148;8.542;2022-11-09T14:06:27;11.90;99.90
19862;DHT22;10093;48.148;8.542;2022-11-09T14:08:54;12.00;99.90
19862;DHT22;10093;48.148;8.542;2022-11-09T14:21:45;12.20;99.90
19862;DHT22;10093;48.148;8.542;2022-11-09T14:24:21;12.20;99.90
19862;DHT22;10093;48.148;8.542;2022-11-09T14:29:57;12.00;99.90
19862;DHT22;10093;48.148;8.542;2022-11-09T14:32:33;12.00;99.90
19862;DHT22;10093;48.148;8.542;2022-11-09T14:35:32;12.00;99.90
19862;DHT22;10093;48.148;8.542;2022-11-09T14:38:00;12.00;99.90
19862;DHT22;10093;48.148;8.542;2022-11-09T14:40:30;11.90;99.90
19862;DHT22;10093;48.148;8.542;2022-11-09T14:43:01;12.00;99.90
19862;DHT22;10093;48.148;8.542;2022-11-09T14:45:28;11.90;99.90
19862;DHT22;10093;48.148;8.542;2022-11-09T14:47:58;11.80;99.90
19862;DHT22;10093;48.148;8.542;2022-11-09T14:50:32;11.80;99.90
19862;DHT22;10093;48.148;8.542;2022-11-09T14:52:59;11.70;99.90
19862;DHT22;10093;48.148;8.542;2022-11-09T14:55:26;11.50;99.90
19862;DHT22;10093;48.148;8.542;2022-11-09T14:57:54;11.50;99.90
19862;DHT22;10093;48.148;8.542;2022-11-09T15:02:50;11.50;99.90
19862;DHT22;10093;48.148;8.542;2022-11-09T15:07:55;11.70;99.90
19862;DHT22;10093;48.148;8.542;2022-11-09T15:10:21;11.60;99.90
19862;DHT22;10093;48.148;8.542;2022-11-09T15:12:52;11.60;99.90
19862;DHT22;10093;48.148;8.542;2022-11-09T15:15:22;11.50;99.90
19862;DHT22;10093;48.148;8.542;2022-11-09T15:17:48;11.30;99.90
19862;DHT22;10093;48.148;8.542;2022-11-09T15:25:50;11.10;99.90
19862;DHT22;10093;48.148;8.542;2022-11-09T15:31:12;11.10;99.90
19862;DHT22;10093;48.148;8.542;2022-11-09T15:36:27;11.00;99.90
19862;DHT22;10093;48.148;8.542;2022-11-09T15:39:15;10.90;99.90
19862;DHT22;10093;48.148;8.542;2022-11-09T15:41:41;10.90;99.90
19862;DHT22;10093;48.148;8.542;2022-11-09T15:44:07;10.80;99.90
19862;DHT22;10093;48.148;8.542;2022-11-09T15:46:46;10.70;99.90
19862;DHT22;10093;48.148;8.542;2022-11-09T15:49:23;10.60;99.90
19862;DHT22;10093;48.148;8.542;2022-11-09T15:51:50;10.60;99.90
19862;DHT22;10093;48.148;8.542;2022-11-09T15:54:18;10.60;99.90
19862;DHT22;10093;48.148;8.542;2022-11-09T15:56:44;10.50;99.90
19862;DHT22;10093;48.148;8.542;2022-11-09T15:59:22;10.50;99.90
19862;DHT22;10093;48.148;8.542;2022-11-09T16:01:48;10.50;99.90
19862;DHT22;10093;48.148;8.542;2022-11-09T16:04:14;10.40;99.90
19862;DHT22;10093;48.148;8.542;2022-11-09T16:06:40;10.40;99.90
19862;DHT22;10093;48.148;8.542;2022-11-09T16:09:06;10.40;99.90
19862;DHT22;10093;48.148;8.542;2022-11-09T16:11:31;10.40;99.90
19862;DHT22;10093;48.148;8.542;2022-11-09T16:14:02;10.50;99.90
19862;DHT22;10093;48.148;8.542;2022-11-09T16:16:28;10.50;99.90
19862;DHT22;10093;48.148;8.542;2022-11-09T16:18:55;10.40;99.90
19862;DHT22;10093;48.148;8.542;2022-11-09T16:21:21;10.40;99.90
19862;DHT22;10093;48.148;8.542;2022-11-09T16:23:47;10.40;99.90
19862;DHT22;10093;48.148;8.542;2022-11-09T16:26:15;10.30;99.90
19862;DHT22;10093;48.148;8.542;2022-11-09T16:28:41;10.30;99.90
19862;DHT22;10093;48.148;8.542;2022-11-09T16:31:08;10.30;99.90
19862;DHT22;10093;48.148;8.542;2022-11-09T16:33:34;10.40;99.90
19862;DHT22;10093;48.148;8.542;2022-11-09T16:36:19;10.60;99.90
19862;DHT22;10093;48.148;8.542;2022-11-09T16:38:48;10.50;99.90
19862;DHT22;10093;48.148;8.542;2022-11-09T16:41:15;10.40;99.90
19862;DHT22;10093;48.148;8.542;2022-11-09T16:43:43;10.30;99.90
19862;DHT22;10093;48.148;8.542;2022-11-09T16:46:11;10.30;99.90
19862;DHT22;10093;48.148;8.542;2022-11-09T16:48:37;10.20;99.90
19862;DHT22;10093;48.148;8.542;2022-11-09T16:51:02;10.20;99.90
19862;DHT22;10093;48.148;8.542;2022-11-09T16:53:28;10.20;99.90
19862;DHT22;10093;48.148;8.542;2022-11-09T16:55:54;10.20;99.90
19862;DHT22;10093;48.148;8.542;2022-11-09T16:58:20;10.10;99.90
19862;DHT22;10093;48.148;8.542;2022-11-09T17:00:48;10.10;99.90
19862;DHT22;10093;48.148;8.542;2022-11-09T17:03:14;10.10;99.90
19862;DHT22;10093;48.148;8.542;2022-11-09T17:05:40;10.10;99.90
19862;DHT22;10093;48.148;8.542;2022-11-09T17:08:08;10.20;99.90
19862;DHT22;10093;48.148;8.542;2022-11-09T17:10:34;10.20;99.90
19862;DHT22;10093;48.148;8.542;2022-11-09T17:13:04;10.10;99.90
19862;DHT22;10093;48.148;8.542;2022-11-09T17:15:30;10.00;99.90
19862;DHT22;10093;48.148;8.542;2022-11-09T17:17:55;10.00;99.90
19862;DHT22;10093;48.148;8.542;2022-11-09T17:20:21;9.90;99.90
19862;DHT22;10093;48.148;8.542;2022-11-09T17:22:47;10.00;99.90
19862;DHT22;10093;48.148;8.542;2022-11-09T17:25:13;9.90;99.90
19862;DHT22;10093;48.148;8.542;2022-11-09T17:27:40;9.90;99.90
19862;DHT22;10093;48.148;8.542;2022-11-09T17:30:06;9.90;99.90
19862;DHT22;10093;48.148;8.542;2022-11-09T17:32:32;9.90;99.90
19862;DHT22;10093;48.148;8.542;2022-11-09T17:34:58;9.90;99.90
19862;DHT22;10093;48.148;8.542;2022-11-09T17:37:24;9.90;99.90
19862;DHT22;10093;48.148;8.542;2022-11-09T17:39:49;9.80;99.90
19862;DHT22;10093;48.148;8.542;2022-11-09T17:42:15;9.80;99.90
19862;DHT22;10093;48.148;8.542;2022-11-09T17:44:40;9.80;99.90
19862;DHT22;10093;48.148;8.542;2022-11-09T17:47:06;9.70;99.90
19862;DHT22;10093;48.148;8.542;2022-11-09T17:49:32;9.70;99.90
19862;DHT22;10093;48.148;8.542;2022-11-09T17:51:58;9.70;99.90
19862;DHT22;10093;48.148;8.542;2022-11-09T17:54:23;9.80;99.90
19862;DHT22;10093;48.148;8.542;2022-11-09T17:56:49;9.70;99.90
19862;DHT22;10093;48.148;8.542;2022-11-09T17:59:18;9.60;99.90
19862;DHT22;10093;48.148;8.542;2022-11-09T18:01:44;9.70;99.90
19862;DHT22;10093;48.148;8.542;2022-11-09T18:04:10;9.70;99.90
19862;DHT22;10093;48.148;8.542;2022-11-09T18:06:36;9.70;99.90
19862;DHT22;10093;48.148;8.542;2022-11-09T18:09:03;9.80;99.90